createdAt,value
2019-06-01T00:04:21.843Z,101822.19
2019-06-01T00:09:25.264Z,101805.34
2019-06-01T00:14:28.724Z,101822.86
2019-06-01T00:19:31.875Z,101814.64
2019-06-01T00:24:35.023Z,101812.15
2019-06-01T00:29:37.840Z,101824.88
2019-06-01T00:34:41.254Z,101836.66
2019-06-01T00:39:44.081Z,101800.25
2019-06-01T00:44:46.812Z,101806.98
2019-06-01T00:49:51.499Z,101801.94
2019-06-01T00:54:55.651Z,101797.13
2019-06-01T00:59:59.735Z,101796.98
2019-06-01T01:05:19.456Z,101805.71
2019-06-01T01:10:22.168Z,101806.87
2019-06-01T01:15:24.899Z,101808.33
2019-06-01T01:20:27.599Z,101810.67
2019-06-01T01:25:30.396Z,101817.56
2019-06-01T01:30:33.089Z,101808.74
2019-06-01T01:35:35.798Z,101813.13
2019-06-01T01:40:38.538Z,101814.14
2019-06-01T01:45:41.921Z,101807.66
2019-06-01T01:50:44.647Z,101812.38
2019-06-01T01:55:47.378Z,101810.52
2019-06-01T02:00:54.556Z,101816.02
2019-06-01T02:05:57.556Z,101807.70
2019-06-01T02:11:01.676Z,101814.24
2019-06-01T02:16:04.798Z,101808.67
2019-06-01T02:21:07.541Z,101804.19
2019-06-01T02:26:10.262Z,101802.34
2019-06-01T02:31:12.978Z,101806.69
2019-06-01T02:36:15.715Z,101797.81
2019-06-01T02:41:18.411Z,101798.41
2019-06-01T02:46:21.138Z,101794.12
2019-06-01T02:51:23.831Z,101803.10
2019-06-01T02:56:26.541Z,101811.98
2019-06-01T03:01:33.917Z,101808.81
2019-06-01T03:06:40.073Z,101814.03
2019-06-01T03:11:42.893Z,101819.56
2019-06-01T03:16:50.325Z,101809.05
2019-06-01T03:21:59.658Z,101809.56
2019-06-01T03:27:04.688Z,101806.47
2019-06-01T03:32:33.324Z,101802.20
2019-06-01T03:37:13.396Z,101806.23
2019-06-01T03:42:16.809Z,101803.25
2019-06-01T03:47:19.630Z,101801.41
2019-06-01T03:52:22.344Z,101818.66
2019-06-01T03:57:25.051Z,101811.23
2019-06-01T04:02:33.266Z,101819.82
2019-06-01T04:07:32.428Z,101817.50
2019-06-01T04:12:35.155Z,101815.28
2019-06-01T04:17:37.945Z,101809.76
2019-06-01T04:22:40.694Z,101813.51
2019-06-01T04:27:43.419Z,101807.46
2019-06-01T04:32:49.985Z,101822.67
2019-06-01T04:37:50.987Z,101823.50
2019-06-01T04:42:53.779Z,101818.84
2019-06-01T04:47:56.484Z,101817.80
2019-06-01T04:52:59.387Z,101808.62
2019-06-01T04:58:02.136Z,101812.98
2019-06-01T05:03:07.177Z,101811.03
2019-06-01T05:08:09.513Z,101809.41
2019-06-01T05:13:13.508Z,101811.20
2019-06-01T05:18:19.320Z,101816.20
2019-06-01T05:23:21.665Z,101815.06
2019-06-01T05:28:24.617Z,101815.75
2019-06-01T05:33:36.976Z,101807.30
2019-06-01T05:38:32.073Z,101807.11
2019-06-01T05:43:34.812Z,101797.73
2019-06-01T05:48:37.715Z,101796.97
2019-06-01T05:53:40.440Z,101801.62
2019-06-01T05:58:43.179Z,101808.88
2019-06-01T06:03:48.645Z,101801.60
2019-06-01T06:08:51.557Z,101799.07
2019-06-01T06:13:54.403Z,101799.27
2019-06-01T06:18:57.141Z,101740.95
2019-06-01T06:23:59.883Z,101795.36
2019-06-01T06:29:02.872Z,101789.70
2019-06-01T06:34:05.614Z,101797.17
2019-06-01T06:39:08.349Z,101794.41
2019-06-01T06:44:11.150Z,101796.19
2019-06-01T06:49:15.000Z,101798.14
2019-06-01T06:54:17.843Z,101788.95
2019-06-01T06:59:20.672Z,101789.67
2019-06-01T07:04:23.430Z,101785.42
2019-06-01T07:09:26.285Z,101791.41
2019-06-01T07:14:28.997Z,101787.62
2019-06-01T07:19:31.925Z,101789.25
2019-06-01T07:24:34.764Z,101786.63
2019-06-01T07:29:37.606Z,101783.16
2019-06-01T07:34:42.770Z,101781.02
2019-06-01T07:39:46.265Z,101787.14
2019-06-01T07:44:50.021Z,101796.75
2019-06-01T07:49:53.044Z,101795.77
2019-06-01T07:54:55.865Z,101809.59
2019-06-01T07:59:58.790Z,101810.20
2019-06-01T08:05:01.609Z,101801.69
2019-06-01T08:10:04.591Z,101810.13
2019-06-01T08:15:07.942Z,101793.27
2019-06-01T08:20:12.494Z,101787.66
2019-06-01T08:25:15.301Z,101789.14
2019-06-01T08:30:18.396Z,101784.17
2019-06-01T08:35:21.246Z,101781.75
2019-06-01T08:40:25.179Z,101773.61
2019-06-01T08:45:29.566Z,101783.28
2019-06-01T08:50:33.997Z,101778.50
2019-06-01T08:55:36.850Z,101779.92
2019-06-01T09:00:39.662Z,101779.94
2019-06-01T09:05:42.424Z,101782.05
2019-06-01T09:10:45.160Z,101773.27
2019-06-01T09:15:48.004Z,101764.35
2019-06-01T09:20:50.821Z,101777.91
2019-06-01T09:25:53.632Z,101768.70
2019-06-01T09:30:56.356Z,101764.83
2019-06-01T09:35:59.102Z,101759.95
2019-06-01T09:41:01.846Z,101761.67
2019-06-01T09:46:04.672Z,101760.45
2019-06-01T09:51:07.378Z,101759.84
2019-06-01T09:56:10.109Z,101759.81
2019-06-01T10:01:12.854Z,101753.13
2019-06-01T10:06:15.566Z,101761.79
2019-06-01T10:11:18.311Z,101748.02
2019-06-01T10:16:21.065Z,101747.25
2019-06-01T10:21:23.820Z,101750.22
2019-06-01T10:26:26.640Z,101746.77
2019-06-01T10:31:30.491Z,101743.06
2019-06-01T10:36:34.014Z,101739.39
2019-06-01T10:41:37.440Z,101740.23
2019-06-01T10:46:40.307Z,101733.20
2019-06-01T10:51:43.050Z,101724.92
2019-06-01T10:56:45.756Z,101727.16
2019-06-01T11:01:48.488Z,101729.42
2019-06-01T11:06:51.237Z,101716.39
2019-06-01T11:11:53.972Z,101707.58
2019-06-01T11:16:56.957Z,101705.17
2019-06-01T11:21:59.818Z,101701.49
2019-06-01T11:27:02.561Z,101698.63
2019-06-01T11:32:05.295Z,101695.77
2019-06-01T11:37:08.063Z,101693.15
2019-06-01T11:42:10.854Z,101696.73
2019-06-01T11:47:13.575Z,101690.41
2019-06-01T11:52:16.323Z,101685.21
2019-06-01T11:57:19.055Z,101679.87
2019-06-01T12:02:22.399Z,101672.56
2019-06-01T12:07:25.119Z,101671.03
2019-06-01T12:12:27.839Z,101675.78
2019-06-01T12:17:30.620Z,101669.48
2019-06-01T12:22:33.355Z,101658.88
2019-06-01T12:27:37.321Z,101659.23
2019-06-01T12:32:40.280Z,101653.23
2019-06-01T12:38:00.843Z,101648.95
2019-06-01T12:42:47.823Z,101648.53
2019-06-01T12:47:55.554Z,101641.20
2019-06-01T12:52:55.305Z,101633.27
2019-06-01T12:57:58.046Z,101627.99
2019-06-01T13:03:06.952Z,101635.29
2019-06-01T13:08:05.440Z,101634.66
2019-06-01T13:13:08.195Z,101628.95
2019-06-01T13:18:11.036Z,101614.91
2019-06-01T13:23:13.768Z,101609.42
2019-06-01T13:28:16.496Z,101600.45
2019-06-01T13:33:19.230Z,101596.82
2019-06-01T13:38:21.940Z,101596.25
2019-06-01T13:43:24.649Z,101581.30
2019-06-01T13:48:27.423Z,101590.25
2019-06-01T13:53:30.139Z,101580.94
2019-06-01T13:58:32.853Z,101582.33
2019-06-01T14:03:35.603Z,101575.18
2019-06-01T14:08:38.381Z,101580.94
2019-06-01T14:13:41.121Z,101563.59
2019-06-01T14:18:43.882Z,101570.83
2019-06-01T14:23:47.648Z,101567.15
2019-06-01T14:28:50.442Z,101571.69
2019-06-01T14:33:57.998Z,101569.42
2019-06-01T14:39:00.950Z,101561.27
2019-06-01T14:44:03.917Z,101556.33
2019-06-01T14:49:06.653Z,101551.47
2019-06-01T14:54:09.408Z,101554.30
2019-06-01T14:59:12.158Z,101544.88
2019-06-01T15:04:14.900Z,101548.44
2019-06-01T15:09:19.678Z,101542.81
2019-06-01T15:14:22.283Z,101538.09
2019-06-01T15:19:25.000Z,101538.09
2019-06-01T15:24:27.748Z,101535.83
2019-06-01T15:29:30.484Z,101527.90
2019-06-01T15:34:33.223Z,101523.69
2019-06-01T15:39:36.350Z,101525.56
2019-06-01T15:44:39.135Z,101517.76
2019-06-01T15:49:44.627Z,101516.95
2019-06-01T15:54:47.348Z,101509.53
2019-06-01T15:59:50.092Z,101515.16
2019-06-01T16:04:52.941Z,101511.27
2019-06-01T16:09:55.812Z,101510.27
2019-06-01T16:14:59.714Z,101496.05
2019-06-01T16:20:02.525Z,101498.91
2019-06-01T16:25:05.478Z,101500.44
2019-06-01T16:30:08.917Z,101501.27
2019-06-01T16:35:11.856Z,101489.95
2019-06-01T16:40:15.607Z,101489.60
2019-06-01T16:45:20.126Z,101489.79
2019-06-01T16:50:22.890Z,101493.45
2019-06-01T16:55:25.620Z,101491.27
2019-06-01T17:00:28.451Z,101493.64
2019-06-01T17:05:33.582Z,101487.25
2019-06-01T17:10:38.192Z,101486.84
2019-06-01T17:15:41.061Z,101481.15
2019-06-01T17:20:46.782Z,101479.89
2019-06-01T17:25:49.504Z,101473.47
2019-06-01T17:30:52.287Z,101475.53
2019-06-01T17:35:55.273Z,101472.67
2019-06-01T17:40:58.007Z,101473.25
2019-06-01T17:46:00.807Z,101473.47
2019-06-01T17:51:04.481Z,101469.34
2019-06-01T17:56:08.193Z,101466.36
2019-06-01T18:01:12.076Z,101469.78
2019-06-01T18:06:14.972Z,101471.53
2019-06-01T18:11:18.912Z,101474.34
2019-06-01T18:16:21.671Z,101454.80
2019-06-01T18:21:24.611Z,101460.37
2019-06-01T18:26:33.275Z,101460.42
2019-06-01T18:31:36.035Z,101457.66
2019-06-01T18:36:38.850Z,101452.02
2019-06-01T18:41:41.581Z,101444.95
2019-06-01T18:46:44.309Z,101448.64
2019-06-01T18:51:47.636Z,101445.20
2019-06-01T18:56:50.532Z,101445.91
2019-06-01T19:01:53.262Z,101448.29
2019-06-01T19:06:55.956Z,101442.59
2019-06-01T19:11:58.682Z,101441.48
2019-06-01T19:17:01.530Z,101443.65
2019-06-01T19:22:04.467Z,101450.98
2019-06-01T19:27:07.185Z,101457.80
2019-06-01T19:32:10.843Z,101455.36
2019-06-01T19:37:17.173Z,101454.01
2019-06-01T19:42:19.989Z,101463.14
2019-06-01T19:47:22.703Z,101459.39
2019-06-01T19:52:25.449Z,101477.23
2019-06-01T19:57:28.150Z,101473.86
2019-06-01T20:02:33.950Z,101479.71
2019-06-01T20:07:35.544Z,101483.45
2019-06-01T20:12:38.362Z,101484.02
2019-06-01T20:17:41.144Z,101481.00
2019-06-01T20:22:43.890Z,101491.02
2019-06-01T20:27:46.656Z,101495.24
2019-06-01T20:32:49.429Z,101490.27
2019-06-01T20:37:52.184Z,101486.73
2019-06-01T20:42:54.966Z,101489.91
2019-06-01T20:47:57.731Z,101496.55
2019-06-01T20:53:00.452Z,101503.14
2019-06-01T20:58:03.230Z,101494.42
2019-06-01T21:03:05.980Z,101489.84
2019-06-01T21:08:08.745Z,101495.89
2019-06-01T21:13:11.473Z,101496.86
2019-06-01T21:18:14.394Z,101497.53
2019-06-01T21:23:18.694Z,101505.23
2019-06-01T21:28:22.529Z,101490.48
2019-06-01T21:33:28.711Z,101494.81
2019-06-01T21:38:31.213Z,101491.88
2019-06-01T21:43:35.531Z,101492.61
2019-06-01T21:48:38.402Z,101492.47
2019-06-01T21:53:41.167Z,101489.45
2019-06-01T21:58:43.925Z,101501.15
2019-06-01T22:03:46.699Z,101500.31
2019-06-01T22:08:52.592Z,101497.82
2019-06-01T22:13:54.070Z,101499.05
2019-06-01T22:18:56.812Z,101499.02
2019-06-01T22:23:59.557Z,101497.11
2019-06-01T22:29:02.293Z,101495.70
2019-06-01T22:34:05.131Z,101494.22
2019-06-01T22:39:08.194Z,101486.53
2019-06-01T22:44:10.926Z,101484.66
2019-06-01T22:49:13.656Z,101487.45
2019-06-01T22:54:17.446Z,101488.84
2019-06-01T22:59:20.540Z,101486.41
2019-06-01T23:04:23.363Z,101482.70
2019-06-01T23:09:27.318Z,101484.98
2019-06-01T23:14:31.443Z,101472.56
2019-06-01T23:19:34.275Z,101471.64
2019-06-01T23:24:37.152Z,101470.77
2019-06-01T23:29:39.882Z,101476.06
2019-06-01T23:34:42.618Z,101474.34
2019-06-01T23:39:45.373Z,101470.28
2019-06-01T23:44:48.136Z,101470.06
2019-06-01T23:49:50.881Z,101461.78
2019-06-01T23:54:53.622Z,101449.59
2019-06-01T23:59:56.416Z,101449.73
